Time;durP1;ratioP1;P1;durP2;ratioP2;P2;SDS_P1;SDS_P2;PMS_P1;PMS_P2;Temp;Humidity;BMP_temperature;BMP_pressure;BME280_temperature;BME280_humidity;BME280_pressure;Samples;Min_cycle;Max_cycle;Signal;HPM_P1;HPM_P2
2023/07/28 00:01:20;;;;;;;6.38;4.50;;;17.00;99.90;;;;;;5039799;28;20033;-64
2023/07/28 00:03:45;;;;;;;8.32;4.25;;;17.10;99.90;;;;;;5039602;28;20108;-64
2023/07/28 00:06:11;;;;;;;6.60;4.43;;;17.10;99.90;;;;;;5039943;28;20364;-64
2023/07/28 00:08:37;;;;;;;9.45;4.88;;;17.20;99.90;;;;;;5039832;28;20068;-64
2023/07/28 00:11:13;;;;;;;9.10;5.32;;;17.20;99.90;;;;;;5039332;28;20054;-64
2023/07/28 00:13:39;;;;;;;10.55;5.43;;;17.30;99.90;;;;;;5039932;28;20418;-64
2023/07/28 00:16:06;;;;;;;7.00;4.32;;;17.30;99.90;;;;;;5039227;28;20063;-64
2023/07/28 00:18:31;;;;;;;7.03;4.28;;;17.30;99.90;;;;;;5039496;28;20033;-63
2023/07/28 00:20:57;;;;;;;10.00;4.15;;;17.30;99.90;;;;;;5039700;28;20030;-64
2023/07/28 00:23:23;;;;;;;9.00;4.88;;;17.30;99.90;;;;;;5039466;28;20025;-63
2023/07/28 00:25:48;;;;;;;14.07;4.50;;;17.30;99.90;;;;;;5039851;28;20104;-64
2023/07/28 00:28:14;;;;;;;9.73;4.50;;;17.30;99.90;;;;;;5039686;28;20024;-63
2023/07/28 00:30:40;;;;;;;8.15;4.80;;;17.20;99.90;;;;;;5037227;28;20025;-64
2023/07/28 00:33:05;;;;;;;8.70;4.40;;;17.20;99.90;;;;;;5036856;28;20426;-64
2023/07/28 00:35:31;;;;;;;8.98;4.57;;;17.10;99.90;;;;;;5036136;28;20354;-64
2023/07/28 00:37:57;;;;;;;8.52;4.07;;;17.00;99.90;;;;;;5036434;28;20392;-63
2023/07/28 00:40:23;;;;;;;7.97;4.45;;;16.90;99.90;;;;;;5036556;28;20037;-63
2023/07/28 00:42:49;;;;;;;8.27;4.13;;;16.80;99.90;;;;;;5036070;28;20029;-64
2023/07/28 00:45:15;;;;;;;7.07;4.13;;;16.80;99.90;;;;;;5035618;28;20045;-64
2023/07/28 00:47:41;;;;;;;10.65;4.80;;;16.70;99.90;;;;;;5036087;28;20079;-63
2023/07/28 00:50:09;;;;;;;12.77;5.28;;;16.70;99.90;;;;;;5035947;28;20036;-64
2023/07/28 00:52:35;;;;;;;7.72;4.75;;;16.70;99.90;;;;;;5036106;28;20104;-63
2023/07/28 00:55:01;;;;;;;8.10;4.78;;;16.70;99.90;;;;;;5035868;28;20476;-64
2023/07/28 00:57:27;;;;;;;9.93;5.05;;;16.60;99.90;;;;;;5035811;28;20051;-64
2023/07/28 00:59:53;;;;;;;8.43;4.95;;;16.60;99.90;;;;;;5035387;28;20033;-63
2023/07/28 01:02:19;;;;;;;8.18;4.70;;;16.50;99.90;;;;;;5035875;28;20037;-64
2023/07/28 01:04:45;;;;;;;6.72;4.43;;;16.50;99.90;;;;;;5035924;28;20025;-64
2023/07/28 01:07:22;;;;;;;7.10;4.53;;;16.40;99.90;;;;;;5036204;28;20028;-64
2023/07/28 01:10:01;;;;;;;7.60;4.25;;;16.50;99.90;;;;;;5035382;28;20026;-64
2023/07/28 01:12:26;;;;;;;8.25;4.03;;;16.40;99.90;;;;;;5035801;28;20109;-64
2023/07/28 01:14:52;;;;;;;10.73;4.32;;;16.40;99.90;;;;;;5035306;28;20049;-63
2023/07/28 01:17:19;;;;;;;8.57;5.00;;;16.50;99.90;;;;;;5035534;28;20447;-64
2023/07/28 01:19:45;;;;;;;9.13;5.15;;;16.50;99.90;;;;;;5035369;28;20409;-64
2023/07/28 01:22:13;;;;;;;12.27;4.20;;;16.60;99.90;;;;;;5035358;28;20033;-63
2023/07/28 01:24:50;;;;;;;7.70;4.13;;;16.60;99.90;;;;;;5035678;28;20104;-64
2023/07/28 01:27:17;;;;;;;11.88;4.82;;;16.60;99.90;;;;;;5035640;28;20030;-63
2023/07/28 01:29:42;;;;;;;6.68;4.20;;;16.60;99.90;;;;;;5035300;28;20312;-63
2023/07/28 01:32:11;;;;;;;7.45;4.00;;;16.60;99.90;;;;;;5034871;28;20155;-63
2023/07/28 01:34:36;;;;;;;6.82;4.20;;;16.60;99.90;;;;;;5035459;28;20446;-63
2023/07/28 01:37:02;;;;;;;8.32;4.43;;;16.60;99.90;;;;;;5035394;28;20072;-64
2023/07/28 01:39:28;;;;;;;6.15;3.72;;;16.70;99.90;;;;;;5035715;28;20022;-63
2023/07/28 01:41:54;;;;;;;16.90;4.45;;;16.70;99.90;;;;;;5034404;28;20051;-63
2023/07/28 01:44:19;;;;;;;8.50;4.43;;;16.70;99.90;;;;;;5035241;28;20030;-63
2023/07/28 01:46:45;;;;;;;7.22;3.80;;;16.80;99.90;;;;;;5035377;28;20045;-63
2023/07/28 01:49:10;;;;;;;7.90;4.50;;;16.70;99.90;;;;;;5034906;28;20430;-63
2023/07/28 01:51:36;;;;;;;8.40;4.45;;;16.70;99.90;;;;;;5034844;28;20061;-64
2023/07/28 01:54:02;;;;;;;8.75;4.60;;;16.60;99.90;;;;;;5034790;28;20104;-63
2023/07/28 01:56:27;;;;;;;7.53;4.32;;;16.60;99.90;;;;;;5034763;28;20466;-64
2023/07/28 01:58:53;;;;;;;8.98;4.43;;;16.50;99.90;;;;;;5034740;28;20049;-63
2023/07/28 02:01:18;;;;;;;7.45;4.22;;;16.60;99.90;;;;;;5034986;28;20048;-63
2023/07/28 02:03:44;;;;;;;12.75;4.00;;;16.60;99.90;;;;;;5034624;28;20104;-64
2023/07/28 02:06:10;;;;;;;7.97;4.22;;;16.60;99.90;;;;;;5034828;28;20106;-64
2023/07/28 02:08:35;;;;;;;7.15;4.03;;;16.60;99.90;;;;;;5034544;28;20036;-64
2023/07/28 02:11:01;;;;;;;11.35;4.18;;;16.50;99.90;;;;;;5034467;28;20108;-63
2023/07/28 02:13:26;;;;;;;8.23;4.10;;;16.50;99.90;;;;;;5034752;28;20021;-63
2023/07/28 02:15:52;;;;;;;8.05;4.30;;;16.60;99.90;;;;;;5034106;28;20067;-63
2023/07/28 02:18:17;;;;;;;6.63;3.72;;;16.60;99.90;;;;;;5034415;28;20381;-63
2023/07/28 02:20:43;;;;;;;7.00;4.30;;;16.70;99.90;;;;;;5034292;28;20060;-63
2023/07/28 02:23:09;;;;;;;7.60;3.92;;;16.60;99.90;;;;;;5034529;28;20026;-63
2023/07/28 02:25:34;;;;;;;5.95;4.20;;;16.70;99.90;;;;;;5034040;28;20207;-64
2023/07/28 02:28:00;;;;;;;8.13;4.68;;;16.70;99.90;;;;;;5034235;28;20044;-64
2023/07/28 02:30:25;;;;;;;7.20;4.10;;;16.70;99.90;;;;;;5033977;28;20071;-64
2023/07/28 02:32:51;;;;;;;6.88;4.18;;;16.80;99.90;;;;;;5034412;28;20030;-64
2023/07/28 02:35:17;;;;;;;5.68;3.45;;;16.70;99.90;;;;;;5034177;28;20032;-63
2023/07/28 02:37:42;;;;;;;7.60;3.78;;;16.80;99.90;;;;;;5034272;28;20022;-63
2023/07/28 02:40:09;;;;;;;9.82;4.13;;;16.80;99.90;;;;;;5033989;28;20033;-64
2023/07/28 02:42:35;;;;;;;7.43;3.92;;;16.70;99.90;;;;;;5033779;28;20053;-63
2023/07/28 02:45:01;;;;;;;8.30;3.97;;;16.80;99.90;;;;;;5033375;28;20485;-63
2023/07/28 02:47:27;;;;;;;7.75;4.47;;;16.70;99.90;;;;;;5033563;28;20031;-64
2023/07/28 02:49:53;;;;;;;7.22;4.05;;;16.80;99.90;;;;;;5034268;28;20104;-64
2023/07/28 02:52:18;;;;;;;9.13;4.35;;;16.80;99.90;;;;;;5033709;28;20473;-64
2023/07/28 02:54:44;;;;;;;7.38;3.72;;;16.70;99.90;;;;;;5032988;28;20025;-64
2023/07/28 02:57:09;;;;;;;6.57;3.95;;;16.70;99.90;;;;;;5033987;28;20446;-64
2023/07/28 02:59:35;;;;;;;4.45;3.15;;;16.60;99.90;;;;;;5033767;28;20017;-64
2023/07/28 03:02:01;;;;;;;5.68;3.45;;;16.50;99.90;;;;;;5033712;28;20033;-63
2023/07/28 03:04:26;;;;;;;7.90;3.63;;;16.40;99.90;;;;;;5033883;28;20048;-64
2023/07/28 03:06:52;;;;;;;10.82;3.83;;;16.20;99.90;;;;;;5033331;28;20113;-64
2023/07/28 03:09:17;;;;;;;6.57;4.13;;;16.10;99.90;;;;;;5033290;28;20409;-64
2023/07/28 03:11:43;;;;;;;6.88;4.00;;;16.10;99.90;;;;;;5033550;28;20025;-65
2023/07/28 03:14:09;;;;;;;6.93;3.95;;;16.00;99.90;;;;;;5033302;28;20033;-64
2023/07/28 03:16:35;;;;;;;8.65;4.30;;;15.90;99.90;;;;;;5033824;28;20108;-64
2023/07/28 03:19:00;;;;;;;6.40;4.03;;;15.90;99.90;;;;;;5033267;28;20097;-64
2023/07/28 03:21:29;;;;;;;8.45;3.97;;;15.70;99.90;;;;;;5033611;28;20033;-64
2023/07/28 03:23:54;;;;;;;7.45;4.10;;;15.80;99.90;;;;;;5033597;28;20053;-64
2023/07/28 03:26:20;;;;;;;8.27;4.43;;;15.90;99.90;;;;;;5032904;28;20114;-64
2023/07/28 03:28:45;;;;;;;7.38;3.92;;;15.90;99.90;;;;;;5033413;28;20032;-64
2023/07/28 03:31:11;;;;;;;6.47;4.18;;;15.90;99.90;;;;;;5033370;28;20036;-64
2023/07/28 03:33:37;;;;;;;6.20;3.78;;;15.80;99.90;;;;;;5033581;28;20440;-64
2023/07/28 03:36:03;;;;;;;9.63;3.80;;;15.70;99.90;;;;;;5033669;28;20029;-65
2023/07/28 03:38:28;;;;;;;12.93;4.53;;;15.70;99.90;;;;;;5033566;28;20060;-64
2023/07/28 03:40:54;;;;;;;7.55;4.60;;;15.80;99.90;;;;;;5015742;28;20450;-64
2023/07/28 03:43:21;;;;;;;6.97;3.80;;;15.90;99.90;;;;;;5032955;28;20096;-64
2023/07/28 03:45:46;;;;;;;6.43;4.03;;;16.00;99.90;;;;;;5033393;28;20064;-64
2023/07/28 03:48:12;;;;;;;6.47;3.85;;;16.10;99.90;;;;;;5033328;28;20017;-64
2023/07/28 03:50:37;;;;;;;7.30;4.18;;;16.10;99.90;;;;;;5033315;28;20018;-64
2023/07/28 03:53:03;;;;;;;6.32;3.90;;;16.10;99.90;;;;;;5033201;28;20072;-64
2023/07/28 03:55:29;;;;;;;6.97;3.83;;;16.10;99.90;;;;;;5033428;28;20021;-65
2023/07/28 03:57:54;;;;;;;11.18;4.00;;;16.10;99.90;;;;;;5033667;28;20036;-65
2023/07/28 04:00:20;;;;;;;8.10;4.38;;;16.10;99.90;;;;;;5033199;28;20021;-66
2023/07/28 04:02:46;;;;;;;9.68;3.85;;;16.10;99.90;;;;;;5033051;28;20030;-68
2023/07/28 04:05:12;;;;;;;6.47;3.85;;;16.00;99.90;;;;;;5035232;28;20060;-68
2023/07/28 04:07:37;;;;;;;7.63;3.80;;;16.10;99.90;;;;;;5036907;28;20086;-68
2023/07/28 04:10:04;;;;;;;6.72;3.78;;;16.10;99.90;;;;;;5036888;28;20118;-69
2023/07/28 04:12:29;;;;;;;5.63;3.53;;;16.20;99.90;;;;;;5036508;28;20037;-68
2023/07/28 04:14:55;;;;;;;9.32;3.78;;;16.30;99.90;;;;;;5036436;28;20052;-67
2023/07/28 04:17:21;;;;;;;7.20;3.90;;;16.30;99.90;;;;;;5036490;28;20029;-69
2023/07/28 04:19:46;;;;;;;6.25;3.63;;;16.50;99.90;;;;;;5036781;28;20077;-68
2023/07/28 04:22:13;;;;;;;7.25;4.10;;;16.50;99.90;;;;;;5036910;28;20021;-68
2023/07/28 04:24:38;;;;;;;6.93;4.00;;;16.60;99.90;;;;;;5036559;28;20025;-68
2023/07/28 04:27:04;;;;;;;10.23;3.80;;;16.70;99.90;;;;;;5036850;28;20112;-68
2023/07/28 04:29:30;;;;;;;8.45;4.05;;;16.70;99.90;;;;;;5036513;28;20343;-65
2023/07/28 04:31:56;;;;;;;6.78;3.83;;;16.70;99.90;;;;;;5036938;28;20026;-65
2023/07/28 04:34:21;;;;;;;5.78;3.55;;;16.60;99.90;;;;;;5036656;28;20025;-65
2023/07/28 04:36:47;;;;;;;5.80;3.75;;;16.60;99.90;;;;;;5036639;28;20049;-64
2023/07/28 04:39:12;;;;;;;5.65;3.53;;;16.50;99.90;;;;;;5036325;28;20027;-65
2023/07/28 04:41:38;;;;;;;7.03;3.95;;;16.50;99.90;;;;;;5036161;28;20465;-64
2023/07/28 04:44:04;;;;;;;6.80;3.83;;;16.50;99.90;;;;;;5036365;28;20037;-66
2023/07/28 04:46:30;;;;;;;9.20;3.97;;;16.50;99.90;;;;;;5036085;28;20049;-67
2023/07/28 04:48:56;;;;;;;7.82;4.03;;;16.60;99.90;;;;;;5036114;28;20021;-66
2023/07/28 04:51:22;;;;;;;8.70;3.90;;;16.60;99.90;;;;;;5036012;28;20028;-64
2023/07/28 04:53:47;;;;;;;6.43;3.88;;;16.60;99.90;;;;;;5036214;28;20033;-67
2023/07/28 04:56:13;;;;;;;7.22;4.30;;;16.70;99.90;;;;;;5036732;28;20327;-64
2023/07/28 04:58:38;;;;;;;6.57;4.20;;;16.50;99.90;;;;;;5035976;28;20057;-64
2023/07/28 05:01:05;;;;;;;6.45;4.10;;;16.40;99.90;;;;;;5035793;28;20055;-64
2023/07/28 05:03:30;;;;;;;9.57;4.30;;;16.40;99.90;;;;;;5036297;28;20025;-65
2023/07/28 05:05:57;;;;;;;8.43;4.15;;;16.30;99.90;;;;;;5036101;28;20108;-67
2023/07/28 05:08:22;;;;;;;9.02;4.03;;;16.30;99.90;;;;;;5036087;28;20508;-68
2023/07/28 05:10:48;;;;;;;10.85;4.20;;;16.30;99.90;;;;;;5035787;28;20029;-68
2023/07/28 05:13:14;;;;;;;6.85;4.47;;;16.30;99.90;;;;;;5035963;28;20126;-66
2023/07/28 05:15:39;;;;;;;6.93;3.70;;;16.40;99.90;;;;;;5035330;28;20029;-64
2023/07/28 05:18:05;;;;;;;5.28;3.60;;;16.40;99.90;;;;;;5035088;28;20040;-66
2023/07/28 05:20:30;;;;;;;6.78;3.97;;;16.40;99.90;;;;;;5035295;28;20053;-66
2023/07/28 05:22:57;;;;;;;7.03;4.03;;;16.40;99.90;;;;;;5035740;28;20026;-67
2023/07/28 05:25:22;;;;;;;8.38;4.18;;;16.50;99.90;;;;;;5035549;28;20104;-67
2023/07/28 05:27:48;;;;;;;11.02;3.80;;;16.50;99.90;;;;;;5035701;28;20048;-68
2023/07/28 05:30:13;;;;;;;8.07;4.32;;;16.60;99.90;;;;;;5035421;28;20079;-66
2023/07/28 05:32:39;;;;;;;6.97;4.20;;;16.60;99.90;;;;;;5035635;28;20029;-66
2023/07/28 05:35:05;;;;;;;8.55;4.00;;;16.60;99.90;;;;;;5035260;28;20112;-66
2023/07/28 05:37:31;;;;;;;7.22;4.25;;;16.60;99.90;;;;;;5035247;28;20512;-65
2023/07/28 05:39:56;;;;;;;8.13;4.20;;;16.60;99.90;;;;;;5035204;28;20025;-66
2023/07/28 05:42:24;;;;;;;7.32;4.30;;;16.70;99.90;;;;;;5035115;28;20029;-65
2023/07/28 05:44:51;;;;;;;6.20;4.15;;;16.70;99.90;;;;;;5035556;28;20033;-65
2023/07/28 05:47:17;;;;;;;7.38;4.15;;;16.60;99.90;;;;;;5034950;28;20445;-66
2023/07/28 05:49:43;;;;;;;6.60;4.22;;;16.60;99.90;;;;;;5034994;28;20025;-67
2023/07/28 05:52:08;;;;;;;6.22;4.10;;;16.70;99.90;;;;;;5035009;28;20061;-67
2023/07/28 05:54:34;;;;;;;9.85;4.53;;;16.80;99.90;;;;;;5034852;28;20024;-68
2023/07/28 05:56:59;;;;;;;7.25;4.38;;;16.80;99.90;;;;;;5034891;28;20023;-67
2023/07/28 05:59:25;;;;;;;6.43;4.05;;;16.80;99.90;;;;;;5035166;28;20342;-67
2023/07/28 06:01:51;;;;;;;8.45;4.05;;;16.80;99.90;;;;;;5034690;28;20468;-68
2023/07/28 06:04:17;;;;;;;8.00;4.40;;;16.80;99.90;;;;;;5034694;28;20030;-68
2023/07/28 06:06:42;;;;;;;10.27;4.95;;;16.70;99.90;;;;;;5034592;28;20418;-66
2023/07/28 06:09:08;;;;;;;7.75;4.53;;;16.70;99.90;;;;;;5034655;28;20018;-68
2023/07/28 06:11:33;;;;;;;8.02;4.72;;;16.70;99.90;;;;;;5034308;28;20029;-68
2023/07/28 06:13:59;;;;;;;8.25;4.75;;;16.70;99.90;;;;;;5034530;28;20033;-66
2023/07/28 06:16:25;;;;;;;9.85;5.10;;;16.70;99.90;;;;;;5034726;28;20104;-64
2023/07/28 06:18:50;;;;;;;8.63;4.60;;;16.70;99.90;;;;;;5034815;28;20026;-65
2023/07/28 06:21:16;;;;;;;7.30;4.20;;;16.70;99.90;;;;;;5034464;28;20032;-62
2023/07/28 06:23:41;;;;;;;10.00;5.13;;;16.70;99.90;;;;;;5034450;28;20087;-66
2023/07/28 06:26:07;;;;;;;9.70;5.38;;;16.70;99.90;;;;;;5034327;28;20439;-67
2023/07/28 06:28:33;;;;;;;9.10;5.10;;;16.70;99.90;;;;;;5034134;28;20026;-65
2023/07/28 06:30:59;;;;;;;7.78;5.00;;;16.70;99.90;;;;;;5034320;28;20079;-66
2023/07/28 06:33:25;;;;;;;7.95;4.68;;;16.70;99.90;;;;;;5034767;28;20028;-68
2023/07/28 06:35:52;;;;;;;7.88;5.15;;;16.70;99.90;;;;;;5034281;28;20100;-68
2023/07/28 06:38:17;;;;;;;8.30;4.90;;;16.70;99.90;;;;;;5034239;28;20105;-68
2023/07/28 06:40:43;;;;;;;11.20;5.40;;;16.80;99.90;;;;;;5034149;28;20453;-67
2023/07/28 06:43:09;;;;;;;11.38;5.65;;;16.80;99.90;;;;;;5034056;28;20449;-67
2023/07/28 06:45:34;;;;;;;11.45;5.47;;;16.80;99.90;;;;;;5033909;28;20103;-66
2023/07/28 06:48:00;;;;;;;10.52;5.47;;;16.70;99.90;;;;;;5033662;28;20477;-67
2023/07/28 06:50:26;;;;;;;12.85;5.88;;;16.80;99.90;;;;;;5033944;28;20025;-65
2023/07/28 06:52:51;;;;;;;11.43;5.28;;;16.90;99.90;;;;;;5034209;28;20029;-65
2023/07/28 06:55:18;;;;;;;16.15;6.80;;;16.90;99.90;;;;;;5033891;28;20053;-65
2023/07/28 06:57:43;;;;;;;8.82;5.55;;;16.90;99.90;;;;;;5033796;28;20104;-66
2023/07/28 07:00:10;;;;;;;10.93;5.60;;;16.90;99.90;;;;;;5033851;28;20438;-65
2023/07/28 07:02:36;;;;;;;10.00;5.57;;;16.90;99.90;;;;;;5033711;28;20036;-66
2023/07/28 07:05:02;;;;;;;9.48;5.63;;;17.00;99.90;;;;;;5034224;28;20029;-66
2023/07/28 07:07:28;;;;;;;13.73;5.85;;;17.00;99.90;;;;;;5033765;28;20026;-66
2023/07/28 07:09:54;;;;;;;10.77;5.45;;;17.00;99.90;;;;;;5033766;28;20021;-66
2023/07/28 07:12:21;;;;;;;11.10;5.78;;;16.90;99.90;;;;;;5034026;28;20373;-66
2023/07/28 07:14:46;;;;;;;9.40;6.35;;;17.00;99.90;;;;;;5033798;28;20033;-66
2023/07/28 07:17:12;;;;;;;9.98;6.03;;;17.00;99.90;;;;;;5033678;28;20025;-68
2023/07/28 07:19:38;;;;;;;10.48;6.00;;;17.00;99.90;;;;;;5033890;28;20026;-65
2023/07/28 07:22:05;;;;;;;9.70;5.95;;;17.00;99.90;;;;;;5034371;28;20034;-70
2023/07/28 07:24:31;;;;;;;10.27;5.65;;;17.00;99.90;;;;;;5033530;28;20318;-64
2023/07/28 07:26:57;;;;;;;10.25;5.90;;;17.00;99.90;;;;;;5033574;28;20093;-66
2023/07/28 07:29:22;;;;;;;10.05;5.72;;;17.00;99.90;;;;;;5033505;28;20366;-68
2023/07/28 07:31:48;;;;;;;9.88;6.20;;;17.10;99.90;;;;;;5033600;28;20021;-64
2023/07/28 07:34:14;;;;;;;10.13;6.22;;;17.20;99.90;;;;;;5034031;28;20339;-65
2023/07/28 07:36:40;;;;;;;10.10;6.55;;;17.20;99.90;;;;;;5034228;28;20393;-63
2023/07/28 07:39:06;;;;;;;11.95;6.35;;;17.30;99.90;;;;;;5033499;28;20440;-68
2023/07/28 07:41:31;;;;;;;15.13;7.50;;;17.30;99.90;;;;;;5037348;28;20033;-67
2023/07/28 07:43:57;;;;;;;12.35;6.68;;;17.20;99.90;;;;;;5037441;28;20099;-68
2023/07/28 07:46:23;;;;;;;14.02;7.28;;;17.20;99.90;;;;;;5037342;28;20056;-67
2023/07/28 07:48:49;;;;;;;13.45;6.82;;;17.30;99.90;;;;;;5037034;28;20026;-68
2023/07/28 07:51:15;;;;;;;9.45;6.53;;;17.30;99.90;;;;;;5037165;28;20032;-67
2023/07/28 07:53:41;;;;;;;11.00;7.28;;;17.40;99.90;;;;;;5037150;28;20079;-67
2023/07/28 07:56:08;;;;;;;12.73;7.40;;;17.40;99.90;;;;;;5036882;28;20104;-67
2023/07/28 07:58:34;;;;;;;10.80;6.85;;;17.50;99.90;;;;;;5037117;28;20041;-66
2023/07/28 08:00:59;;;;;;;14.98;6.47;;;17.70;99.90;;;;;;5037013;28;20439;-67
2023/07/28 08:03:26;;;;;;;11.45;6.95;;;17.80;99.90;;;;;;5037133;28;20087;-67
2023/07/28 08:05:52;;;;;;;9.30;6.15;;;18.00;99.90;;;;;;5036908;28;20021;-68
2023/07/28 08:08:19;;;;;;;10.32;6.85;;;18.00;99.90;;;;;;5036626;28;20373;-68
2023/07/28 08:10:46;;;;;;;10.63;6.20;;;18.10;99.90;;;;;;5036761;28;20037;-69
2023/07/28 08:13:12;;;;;;;11.75;6.10;;;18.10;99.90;;;;;;5037332;28;20029;-68
2023/07/28 08:15:38;;;;;;;11.70;6.45;;;18.20;99.90;;;;;;5037285;28;20033;-70
2023/07/28 08:18:03;;;;;;;10.25;6.80;;;18.20;99.90;;;;;;5036692;28;20034;-69
2023/07/28 08:20:29;;;;;;;11.13;6.68;;;18.40;99.90;;;;;;5036783;28;20026;-70
2023/07/28 08:22:55;;;;;;;9.95;6.63;;;18.50;99.90;;;;;;5036946;28;20033;-71
2023/07/28 08:25:23;;;;;;;10.25;6.28;;;18.70;99.90;;;;;;5036731;28;20028;-68
2023/07/28 08:27:49;;;;;;;13.60;7.25;;;18.70;99.90;;;;;;5036701;28;20029;-66
2023/07/28 08:30:15;;;;;;;10.32;6.60;;;18.70;99.90;;;;;;5036665;28;20452;-70
2023/07/28 08:32:42;;;;;;;12.52;6.57;;;18.90;99.90;;;;;;5036548;28;20026;-68
2023/07/28 08:35:08;;;;;;;15.63;6.53;;;18.90;99.90;;;;;;5036475;28;20025;-67
2023/07/28 08:37:34;;;;;;;13.43;6.40;;;18.90;99.90;;;;;;5036512;28;20024;-67
2023/07/28 08:40:00;;;;;;;11.07;6.82;;;18.80;99.90;;;;;;5036176;28;20048;-68
2023/07/28 08:42:28;;;;;;;11.40;6.65;;;18.80;99.90;;;;;;5036571;28;20133;-67
2023/07/28 08:44:54;;;;;;;9.60;6.57;;;18.70;99.90;;;;;;5035768;28;20029;-64
2023/07/28 08:47:22;;;;;;;10.70;7.25;;;18.60;99.90;;;;;;5016909;28;20028;-65
2023/07/28 08:49:48;;;;;;;10.95;7.88;;;18.50;99.90;;;;;;5016662;28;20026;-67
2023/07/28 08:52:17;;;;;;;9.52;6.30;;;18.40;99.90;;;;;;5015061;28;20085;-68
2023/07/28 08:54:43;;;;;;;10.95;7.35;;;18.30;99.90;;;;;;5016635;28;20022;-68
2023/07/28 08:57:10;;;;;;;12.45;7.40;;;18.30;99.90;;;;;;5016598;28;20021;-68
2023/07/28 08:59:36;;;;;;;12.15;7.63;;;18.30;99.90;;;;;;5015507;28;20072;-69
2023/07/28 09:02:04;;;;;;;14.73;7.35;;;18.30;99.90;;;;;;5016437;28;20030;-67
2023/07/28 09:04:30;;;;;;;9.93;6.00;;;18.20;99.90;;;;;;5016340;28;20026;-66
2023/07/28 09:06:58;;;;;;;10.23;6.90;;;18.20;99.90;;;;;;5016110;28;20022;-68
2023/07/28 09:09:24;;;;;;;11.18;7.22;;;18.20;99.90;;;;;;5016487;28;20021;-66
2023/07/28 09:11:54;;;;;;;11.27;7.30;;;18.20;99.90;;;;;;5015691;28;20030;-68
2023/07/28 09:14:23;;;;;;;10.02;7.13;;;18.20;99.90;;;;;;5015670;28;20014;-70
2023/07/28 09:16:49;;;;;;;11.15;6.68;;;18.30;99.90;;;;;;4997929;28;20533;-67
2023/07/28 09:19:15;;;;;;;10.20;6.18;;;18.30;99.90;;;;;;5015307;28;20141;-69
2023/07/28 09:21:46;;;;;;;10.85;6.70;;;18.30;99.90;;;;;;5015692;28;20030;-70
2023/07/28 09:24:14;;;;;;;10.38;6.30;;;18.30;99.90;;;;;;5015090;28;20038;-60
2023/07/28 09:26:51;;;;;;;10.63;6.68;;;18.20;99.90;;;;;;5015612;28;20084;-59
2023/07/28 09:29:19;;;;;;;10.40;6.30;;;18.20;99.90;;;;;;5015449;28;20069;-60
2023/07/28 09:31:49;;;;;;;10.88;6.60;;;18.40;99.90;;;;;;5015339;28;20093;-61
2023/07/28 09:34:28;;;;;;;11.23;6.22;;;18.30;99.90;;;;;;5015117;28;20459;-61
2023/07/28 09:36:55;;;;;;;11.05;6.78;;;18.40;99.90;;;;;;5015843;28;20133;-61
2023/07/28 09:39:24;;;;;;;12.63;6.47;;;18.40;99.90;;;;;;5015128;28;20113;-60
2023/07/28 09:41:50;;;;;;;11.05;6.25;;;18.40;99.90;;;;;;5015170;28;20033;-63
2023/07/28 09:44:16;;;;;;;11.55;6.78;;;18.40;99.90;;;;;;5015186;28;20036;-60
2023/07/28 09:46:56;;;;;;;11.25;6.50;;;18.40;99.90;;;;;;5014619;28;20129;-60
2023/07/28 09:49:48;;;;;;;10.40;6.20;;;18.40;99.90;;;;;;5015037;28;20064;-61
2023/07/28 09:52:16;;;;;;;9.57;6.35;;;18.50;99.90;;;;;;5014839;28;20458;-61
2023/07/28 09:54:48;;;;;;;9.98;5.55;;;18.60;99.90;;;;;;5014540;28;20033;-60
2023/07/28 09:57:19;;;;;;;9.60;5.68;;;18.80;99.90;;;;;;5015478;28;20085;-60
2023/07/28 09:59:47;;;;;;;8.02;5.22;;;18.90;99.90;;;;;;5015323;28;20041;-60
2023/07/28 10:02:13;;;;;;;10.10;4.75;;;19.10;99.90;;;;;;4996374;28;20125;-61
2023/07/28 10:04:41;;;;;;;8.57;5.03;;;19.20;99.90;;;;;;5014732;28;20033;-60
2023/07/28 10:07:08;;;;;;;9.68;5.47;;;19.40;99.90;;;;;;5014647;28;20104;-60
2023/07/28 10:09:37;;;;;;;10.48;4.95;;;19.50;99.90;;;;;;5017028;28;20028;-60
2023/07/28 10:12:04;;;;;;;15.38;4.95;;;19.60;99.90;;;;;;5034402;28;20021;-61
2023/07/28 10:14:33;;;;;;;6.97;4.78;;;19.80;99.90;;;;;;5034325;28;20028;-61
2023/07/28 10:17:04;;;;;;;10.35;4.82;;;20.20;99.90;;;;;;5034856;28;20087;-61
2023/07/28 10:19:37;;;;;;;13.70;4.83;;;20.10;99.90;;;;;;5034234;28;20032;-62
2023/07/28 10:22:12;;;;;;;7.38;4.32;;;20.20;99.90;;;;;;5033973;28;20763;-62
2023/07/28 10:24:55;;;;;;;8.50;4.65;;;20.40;99.90;;;;;;5034184;28;20029;-62
2023/07/28 10:27:37;;;;;;;11.05;4.47;;;20.60;99.90;;;;;;5034293;28;20025;-62
2023/07/28 10:30:04;;;;;;;8.68;4.60;;;20.60;99.90;;;;;;5034264;28;20029;-61
2023/07/28 10:32:44;;;;;;;7.47;3.90;;;20.40;99.90;;;;;;5034140;28;20527;-62
2023/07/28 10:35:12;;;;;;;7.47;4.17;;;20.50;99.90;;;;;;5034516;28;20022;-61
2023/07/28 10:37:39;;;;;;;5.82;3.85;;;20.50;99.90;;;;;;5034173;28;20263;-62
2023/07/28 10:40:24;;;;;;;5.45;3.58;;;20.50;99.90;;;;;;5034237;28;20100;-61
2023/07/28 10:42:53;;;;;;;7.25;3.58;;;20.40;99.90;;;;;;5034098;28;20040;-61
2023/07/28 10:45:19;;;;;;;6.03;3.33;;;20.40;99.90;;;;;;5034083;28;20042;-62
2023/07/28 10:47:45;;;;;;;8.02;4.00;;;20.50;99.90;;;;;;5034629;28;20026;-62
2023/07/28 10:50:12;;;;;;;5.40;3.45;;;20.60;99.90;;;;;;5033759;28;20353;-62
2023/07/28 10:52:42;;;;;;;8.25;4.20;;;20.60;99.90;;;;;;5033675;28;20032;-62
2023/07/28 10:55:18;;;;;;;4.63;3.30;;;20.80;99.90;;;;;;5033429;28;20028;-62
2023/07/28 10:57:45;;;;;;;5.25;3.15;;;21.00;99.90;;;;;;5033898;28;20402;-62
2023/07/28 11:00:12;;;;;;;4.95;3.47;;;21.20;99.90;;;;;;5033607;28;20049;-62
2023/07/28 11:02:44;;;;;;;5.85;2.80;;;21.50;99.90;;;;;;5033701;28;20025;-61
2023/07/28 11:05:13;;;;;;;6.45;2.88;;;21.60;99.90;;;;;;5034109;28;20025;-61
2023/07/28 11:07:43;;;;;;;7.03;2.78;;;21.80;99.90;;;;;;5033864;28;20350;-61
2023/07/28 11:10:13;;;;;;;4.22;3.05;;;21.60;99.90;;;;;;5034340;28;20047;-61
2023/07/28 11:12:47;;;;;;;6.03;2.63;;;21.40;99.90;;;;;;5034367;28;20071;-61
2023/07/28 11:15:14;;;;;;;5.80;3.08;;;21.20;99.90;;;;;;5033203;28;20057;-61
2023/07/28 11:17:43;;;;;;;4.38;2.90;;;21.10;99.90;;;;;;5034188;28;20030;-61
2023/07/28 11:20:26;;;;;;;5.15;2.90;;;21.10;99.90;;;;;;5033710;28;20029;-61
2023/07/28 11:22:57;;;;;;;6.43;3.30;;;21.10;99.90;;;;;;5033585;28;20366;-62
2023/07/28 11:25:24;;;;;;;4.05;2.83;;;21.10;99.90;;;;;;5034423;28;20416;-61
2023/07/28 11:27:50;;;;;;;4.55;2.92;;;21.10;99.90;;;;;;5033512;28;20032;-61
2023/07/28 11:30:18;;;;;;;4.10;2.80;;;21.00;99.90;;;;;;5033832;28;20014;-62
2023/07/28 11:32:45;;;;;;;9.40;3.30;;;21.00;99.90;;;;;;5033767;28;20396;-62
2023/07/28 11:35:13;;;;;;;4.40;3.00;;;21.20;99.90;;;;;;5033802;28;20028;-62
2023/07/28 11:37:40;;;;;;;4.40;3.00;;;21.20;99.90;;;;;;5033462;28;20026;-61
2023/07/28 11:40:08;;;;;;;4.47;2.78;;;21.10;99.90;;;;;;5034068;28;20100;-61
2023/07/28 11:42:35;;;;;;;4.57;2.92;;;21.10;99.90;;;;;;5033326;28;20041;-61
2023/07/28 11:45:02;;;;;;;5.60;2.92;;;21.10;99.90;;;;;;5033666;28;20029;-62
2023/07/28 11:47:28;;;;;;;6.93;2.97;;;21.20;99.90;;;;;;5016334;28;20357;-62
2023/07/28 11:49:54;;;;;;;6.03;3.15;;;21.10;99.90;;;;;;5033891;28;20029;-61
2023/07/28 11:52:21;;;;;;;6.00;3.30;;;21.10;99.90;;;;;;5033956;28;20449;-61
2023/07/28 11:54:47;;;;;;;4.25;2.95;;;21.20;99.90;;;;;;5033638;28;20060;-61
2023/07/28 11:57:12;;;;;;;4.97;3.13;;;21.30;99.90;;;;;;5033747;28;20025;-62
2023/07/28 11:59:38;;;;;;;7.57;3.17;;;21.30;99.90;;;;;;5033071;28;20032;-61
2023/07/28 12:02:05;;;;;;;7.78;3.13;;;21.50;99.90;;;;;;5015812;28;20093;-62
2023/07/28 12:04:38;;;;;;;4.38;2.40;;;21.70;99.90;;;;;;5033523;28;20021;-61
2023/07/28 12:07:14;;;;;;;6.80;2.92;;;22.10;99.90;;;;;;5033725;28;20025;-61
2023/07/28 12:09:50;;;;;;;6.57;2.70;;;22.40;99.90;;;;;;5033528;28;20033;-61
2023/07/28 12:12:17;;;;;;;5.68;2.08;;;22.60;99.90;;;;;;5033077;28;20018;-62
2023/07/28 12:14:46;;;;;;;3.38;1.70;;;22.50;99.90;;;;;;5015666;28;20036;-63
2023/07/28 12:17:17;;;;;;;3.15;1.90;;;22.20;99.90;;;;;;5033148;28;20026;-62
2023/07/28 12:20:10;;;;;;;3.05;2.10;;;21.90;99.90;;;;;;5033105;28;20022;-61
2023/07/28 12:22:39;;;;;;;3.45;2.00;;;21.70;99.90;;;;;;5033242;28;20057;-61
2023/07/28 12:25:05;;;;;;;3.72;2.15;;;21.80;99.90;;;;;;5032828;28;20025;-62
2023/07/28 12:27:31;;;;;;;3.13;1.85;;;21.80;99.90;;;;;;5036357;28;20026;-62
2023/07/28 12:29:57;;;;;;;2.72;1.92;;;21.90;99.90;;;;;;5036461;28;20482;-62
2023/07/28 12:32:23;;;;;;;3.95;1.90;;;21.80;99.90;;;;;;5018941;28;20051;-62
2023/07/28 12:34:50;;;;;;;3.88;1.95;;;21.70;99.90;;;;;;5036347;28;20101;-62
2023/07/28 12:37:19;;;;;;;4.43;2.00;;;21.70;99.90;;;;;;5019124;28;20076;-62
2023/07/28 12:39:46;;;;;;;6.30;2.15;;;21.60;99.90;;;;;;5019295;28;20036;-62
2023/07/28 12:42:12;;;;;;;2.95;1.77;;;21.50;99.90;;;;;;5036325;28;20087;-61